sensor_id;sensor_type;location;lat;lon;timestamp;P1;durP1;ratioP1;P2;durP2;ratioP2
15408;SDS011;7803;48.130;13.788;2023-03-01T00:02:48;3.72;;;3.33;;
15408;SDS011;7803;48.130;13.788;2023-03-01T00:05:50;3.30;;;3.10;;
15408;SDS011;7803;48.130;13.788;2023-03-01T00:08:52;3.60;;;3.30;;
15408;SDS011;7803;48.130;13.788;2023-03-01T00:11:54;3.70;;;3.40;;
15408;SDS011;7803;48.130;13.788;2023-03-01T00:14:56;3.80;;;3.50;;
15408;SDS011;7803;48.130;13.788;2023-03-01T00:18:00;3.90;;;3.50;;
15408;SDS011;7803;48.130;13.788;2023-03-01T00:21:02;3.70;;;3.40;;
15408;SDS011;7803;48.130;13.788;2023-03-01T00:24:05;3.65;;;3.35;;
15408;SDS011;7803;48.130;13.788;2023-03-01T00:27:07;3.75;;;3.45;;
15408;SDS011;7803;48.130;13.788;2023-03-01T00:30:10;3.35;;;3.13;;
15408;SDS011;7803;48.130;13.788;2023-03-01T00:33:14;3.78;;;3.47;;
15408;SDS011;7803;48.130;13.788;2023-03-01T00:36:16;3.65;;;3.35;;
15408;SDS011;7803;48.130;13.788;2023-03-01T00:39:18;3.50;;;3.20;;
15408;SDS011;7803;48.130;13.788;2023-03-01T00:42:20;4.57;;;4.13;;
15408;SDS011;7803;48.130;13.788;2023-03-01T00:45:22;3.78;;;3.47;;
15408;SDS011;7803;48.130;13.788;2023-03-01T00:48:25;4.20;;;3.80;;
15408;SDS011;7803;48.130;13.788;2023-03-01T00:51:28;3.90;;;3.60;;
15408;SDS011;7803;48.130;13.788;2023-03-01T00:54:30;3.90;;;3.60;;
15408;SDS011;7803;48.130;13.788;2023-03-01T00:57:32;3.70;;;3.40;;
15408;SDS011;7803;48.130;13.788;2023-03-01T01:00:34;3.90;;;3.60;;
15408;SDS011;7803;48.130;13.788;2023-03-01T01:03:38;3.75;;;3.45;;
15408;SDS011;7803;48.130;13.788;2023-03-01T01:06:41;3.83;;;3.53;;
15408;SDS011;7803;48.130;13.788;2023-03-01T01:09:44;3.75;;;3.45;;
15408;SDS011;7803;48.130;13.788;2023-03-01T01:12:46;4.15;;;3.85;;
15408;SDS011;7803;48.130;13.788;2023-03-01T01:15:48;4.13;;;3.72;;
15408;SDS011;7803;48.130;13.788;2023-03-01T01:18:52;4.07;;;3.67;;
15408;SDS011;7803;48.130;13.788;2023-03-01T01:21:54;4.05;;;3.67;;
15408;SDS011;7803;48.130;13.788;2023-03-01T01:24:56;9.23;;;3.95;;
15408;SDS011;7803;48.130;13.788;2023-03-01T01:27:58;4.57;;;4.15;;
15408;SDS011;7803;48.130;13.788;2023-03-01T01:31:00;5.47;;;4.82;;
15408;SDS011;7803;48.130;13.788;2023-03-01T01:34:05;4.75;;;4.22;;
15408;SDS011;7803;48.130;13.788;2023-03-01T01:37:08;4.95;;;4.45;;
15408;SDS011;7803;48.130;13.788;2023-03-01T01:40:10;5.03;;;4.60;;
15408;SDS011;7803;48.130;13.788;2023-03-01T01:43:16;5.50;;;5.00;;
15408;SDS011;7803;48.130;13.788;2023-03-01T01:46:24;5.00;;;4.60;;
15408;SDS011;7803;48.130;13.788;2023-03-01T01:49:35;5.90;;;5.38;;
15408;SDS011;7803;48.130;13.788;2023-03-01T01:52:39;6.20;;;5.60;;
15408;SDS011;7803;48.130;13.788;2023-03-01T01:55:43;5.75;;;5.25;;
15408;SDS011;7803;48.130;13.788;2023-03-01T01:58:48;6.40;;;5.65;;
15408;SDS011;7803;48.130;13.788;2023-03-01T02:01:51;6.05;;;5.55;;
15408;SDS011;7803;48.130;13.788;2023-03-01T02:04:58;6.47;;;5.88;;
15408;SDS011;7803;48.130;13.788;2023-03-01T02:08:10;6.90;;;6.20;;
15408;SDS011;7803;48.130;13.788;2023-03-01T02:11:14;7.75;;;7.03;;
15408;SDS011;7803;48.130;13.788;2023-03-01T02:14:18;7.05;;;6.35;;
15408;SDS011;7803;48.130;13.788;2023-03-01T02:17:20;7.00;;;6.30;;
15408;SDS011;7803;48.130;13.788;2023-03-01T02:20:26;7.47;;;6.75;;
15408;SDS011;7803;48.130;13.788;2023-03-01T02:23:34;7.68;;;6.88;;
15408;SDS011;7803;48.130;13.788;2023-03-01T02:26:40;8.18;;;7.38;;
15408;SDS011;7803;48.130;13.788;2023-03-01T02:29:47;7.63;;;6.93;;
15408;SDS011;7803;48.130;13.788;2023-03-01T02:32:50;8.55;;;7.70;;
15408;SDS011;7803;48.130;13.788;2023-03-01T02:35:53;8.63;;;7.72;;
15408;SDS011;7803;48.130;13.788;2023-03-01T02:38:57;7.78;;;7.07;;
15408;SDS011;7803;48.130;13.788;2023-03-01T02:42:01;8.73;;;7.82;;
15408;SDS011;7803;48.130;13.788;2023-03-01T02:45:07;8.93;;;8.05;;
15408;SDS011;7803;48.130;13.788;2023-03-01T02:48:10;8.45;;;7.65;;
15408;SDS011;7803;48.130;13.788;2023-03-01T02:51:24;9.20;;;8.25;;
15408;SDS011;7803;48.130;13.788;2023-03-01T02:54:41;8.40;;;7.60;;
15408;SDS011;7803;48.130;13.788;2023-03-01T02:57:47;9.00;;;8.02;;
15408;SDS011;7803;48.130;13.788;2023-03-01T03:00:52;9.20;;;8.27;;
15408;SDS011;7803;48.130;13.788;2023-03-01T03:03:54;8.93;;;8.02;;
15408;SDS011;7803;48.130;13.788;2023-03-01T03:06:56;8.90;;;8.05;;
15408;SDS011;7803;48.130;13.788;2023-03-01T03:09:58;8.98;;;8.07;;
15408;SDS011;7803;48.130;13.788;2023-03-01T03:13:01;9.40;;;8.50;;
15408;SDS011;7803;48.130;13.788;2023-03-01T03:16:06;10.32;;;9.23;;
15408;SDS011;7803;48.130;13.788;2023-03-01T03:19:09;9.43;;;8.52;;
15408;SDS011;7803;48.130;13.788;2023-03-01T03:22:12;9.45;;;8.55;;
15408;SDS011;7803;48.130;13.788;2023-03-01T03:25:14;9.25;;;8.25;;
15408;SDS011;7803;48.130;13.788;2023-03-01T03:28:17;9.60;;;8.70;;
15408;SDS011;7803;48.130;13.788;2023-03-01T03:31:20;9.68;;;8.68;;
15408;SDS011;7803;48.130;13.788;2023-03-01T03:34:22;9.27;;;8.38;;
15408;SDS011;7803;48.130;13.788;2023-03-01T03:37:25;9.70;;;8.63;;
15408;SDS011;7803;48.130;13.788;2023-03-01T03:40:45;8.93;;;8.13;;
15408;SDS011;7803;48.130;13.788;2023-03-01T03:43:48;9.88;;;8.98;;
15408;SDS011;7803;48.130;13.788;2023-03-01T03:46:51;9.40;;;8.50;;
15408;SDS011;7803;48.130;13.788;2023-03-01T03:49:54;10.35;;;9.35;;
15408;SDS011;7803;48.130;13.788;2023-03-01T03:52:56;9.38;;;8.48;;
15408;SDS011;7803;48.130;13.788;2023-03-01T03:55:58;10.00;;;9.00;;
15408;SDS011;7803;48.130;13.788;2023-03-01T03:59:00;9.43;;;8.52;;
15408;SDS011;7803;48.130;13.788;2023-03-01T04:02:04;9.57;;;8.68;;
15408;SDS011;7803;48.130;13.788;2023-03-01T04:05:09;9.95;;;8.95;;
15408;SDS011;7803;48.130;13.788;2023-03-01T04:08:13;9.20;;;8.30;;
15408;SDS011;7803;48.130;13.788;2023-03-01T04:11:15;9.82;;;8.82;;
15408;SDS011;7803;48.130;13.788;2023-03-01T04:14:29;9.27;;;8.38;;
15408;SDS011;7803;48.130;13.788;2023-03-01T04:17:33;10.63;;;9.50;;
15408;SDS011;7803;48.130;13.788;2023-03-01T04:20:35;9.23;;;8.32;;
15408;SDS011;7803;48.130;13.788;2023-03-01T04:23:38;9.38;;;8.48;;
15408;SDS011;7803;48.130;13.788;2023-03-01T04:26:40;9.23;;;8.32;;
15408;SDS011;7803;48.130;13.788;2023-03-01T04:29:43;9.18;;;8.27;;
15408;SDS011;7803;48.130;13.788;2023-03-01T04:32:46;9.70;;;8.80;;
15408;SDS011;7803;48.130;13.788;2023-03-01T04:35:50;9.18;;;8.35;;
15408;SDS011;7803;48.130;13.788;2023-03-01T04:38:53;9.00;;;8.10;;
15408;SDS011;7803;48.130;13.788;2023-03-01T04:41:55;9.45;;;8.48;;
15408;SDS011;7803;48.130;13.788;2023-03-01T04:44:57;9.60;;;8.70;;
15408;SDS011;7803;48.130;13.788;2023-03-01T04:48:01;9.50;;;8.60;;
15408;SDS011;7803;48.130;13.788;2023-03-01T04:51:04;9.02;;;8.13;;
15408;SDS011;7803;48.130;13.788;2023-03-01T04:54:07;8.77;;;7.97;;
15408;SDS011;7803;48.130;13.788;2023-03-01T04:57:10;9.02;;;8.13;;
15408;SDS011;7803;48.130;13.788;2023-03-01T05:00:13;9.02;;;8.13;;
15408;SDS011;7803;48.130;13.788;2023-03-01T05:03:23;9.10;;;8.20;;
15408;SDS011;7803;48.130;13.788;2023-03-01T05:06:25;9.77;;;8.88;;
15408;SDS011;7803;48.130;13.788;2023-03-01T05:09:27;9.13;;;8.23;;
15408;SDS011;7803;48.130;13.788;2023-03-01T05:12:29;9.32;;;8.35;;
15408;SDS011;7803;48.130;13.788;2023-03-01T05:15:32;8.52;;;7.72;;
15408;SDS011;7803;48.130;13.788;2023-03-01T05:18:35;9.05;;;8.15;;
15408;SDS011;7803;48.130;13.788;2023-03-01T05:21:37;8.55;;;7.70;;
15408;SDS011;7803;48.130;13.788;2023-03-01T05:25:00;8.13;;;7.32;;
15408;SDS011;7803;48.130;13.788;2023-03-01T05:28:03;8.40;;;7.60;;
15408;SDS011;7803;48.130;13.788;2023-03-01T05:31:05;8.43;;;7.63;;
15408;SDS011;7803;48.130;13.788;2023-03-01T05:34:11;8.43;;;7.40;;
15408;SDS011;7803;48.130;13.788;2023-03-01T05:37:13;8.88;;;7.97;;
15408;SDS011;7803;48.130;13.788;2023-03-01T05:40:16;8.38;;;7.57;;
15408;SDS011;7803;48.130;13.788;2023-03-01T05:43:19;8.48;;;7.68;;
15408;SDS011;7803;48.130;13.788;2023-03-01T05:46:21;8.48;;;7.68;;
15408;SDS011;7803;48.130;13.788;2023-03-01T05:49:26;7.85;;;7.05;;
15408;SDS011;7803;48.130;13.788;2023-03-01T05:52:28;8.18;;;7.38;;
15408;SDS011;7803;48.130;13.788;2023-03-01T05:55:30;8.10;;;7.32;;
15408;SDS011;7803;48.130;13.788;2023-03-01T05:58:33;10.38;;;8.48;;
15408;SDS011;7803;48.130;13.788;2023-03-01T06:01:36;10.75;;;8.77;;
15408;SDS011;7803;48.130;13.788;2023-03-01T06:04:40;9.23;;;8.20;;
15408;SDS011;7803;48.130;13.788;2023-03-01T06:07:42;8.95;;;8.00;;
15408;SDS011;7803;48.130;13.788;2023-03-01T06:10:44;8.75;;;7.90;;
15408;SDS011;7803;48.130;13.788;2023-03-01T06:13:47;9.35;;;7.93;;
15408;SDS011;7803;48.130;13.788;2023-03-01T06:16:49;8.07;;;7.30;;
15408;SDS011;7803;48.130;13.788;2023-03-01T06:19:53;9.63;;;7.40;;
15408;SDS011;7803;48.130;13.788;2023-03-01T06:22:55;8.35;;;7.55;;
15408;SDS011;7803;48.130;13.788;2023-03-01T06:25:57;8.43;;;7.13;;
15408;SDS011;7803;48.130;13.788;2023-03-01T06:29:00;8.57;;;7.78;;
15408;SDS011;7803;48.130;13.788;2023-03-01T06:32:02;9.35;;;7.47;;
15408;SDS011;7803;48.130;13.788;2023-03-01T06:35:06;9.23;;;7.40;;
15408;SDS011;7803;48.130;13.788;2023-03-01T06:38:09;8.13;;;7.32;;
15408;SDS011;7803;48.130;13.788;2023-03-01T06:41:11;8.43;;;7.50;;
15408;SDS011;7803;48.130;13.788;2023-03-01T06:44:13;7.97;;;7.20;;
15408;SDS011;7803;48.130;13.788;2023-03-01T06:47:15;7.97;;;7.07;;
15408;SDS011;7803;48.130;13.788;2023-03-01T06:50:18;7.55;;;6.78;;
15408;SDS011;7803;48.130;13.788;2023-03-01T06:53:21;8.55;;;7.35;;
15408;SDS011;7803;48.130;13.788;2023-03-01T06:56:23;8.30;;;7.50;;
15408;SDS011;7803;48.130;13.788;2023-03-01T06:59:25;8.27;;;7.35;;
15408;SDS011;7803;48.130;13.788;2023-03-01T07:02:27;7.57;;;6.75;;
15408;SDS011;7803;48.130;13.788;2023-03-01T07:05:30;7.45;;;6.75;;
15408;SDS011;7803;48.130;13.788;2023-03-01T07:08:35;7.97;;;7.22;;
15408;SDS011;7803;48.130;13.788;2023-03-01T07:11:37;7.53;;;6.82;;
15408;SDS011;7803;48.130;13.788;2023-03-01T07:14:39;7.95;;;7.15;;
15408;SDS011;7803;48.130;13.788;2023-03-01T07:17:41;8.07;;;7.28;;
15408;SDS011;7803;48.130;13.788;2023-03-01T07:20:46;7.57;;;6.75;;
15408;SDS011;7803;48.130;13.788;2023-03-01T07:23:48;7.93;;;7.13;;
15408;SDS011;7803;48.130;13.788;2023-03-01T07:26:50;7.95;;;7.15;;
15408;SDS011;7803;48.130;13.788;2023-03-01T07:29:53;7.50;;;6.68;;
15408;SDS011;7803;48.130;13.788;2023-03-01T07:32:56;7.43;;;6.72;;
15408;SDS011;7803;48.130;13.788;2023-03-01T07:36:01;8.00;;;7.20;;
15408;SDS011;7803;48.130;13.788;2023-03-01T07:39:04;8.10;;;7.18;;
15408;SDS011;7803;48.130;13.788;2023-03-01T07:42:07;7.60;;;6.90;;
15408;SDS011;7803;48.130;13.788;2023-03-01T07:45:09;7.30;;;6.60;;
15408;SDS011;7803;48.130;13.788;2023-03-01T07:48:11;8.32;;;7.25;;
15408;SDS011;7803;48.130;13.788;2023-03-01T07:51:15;8.00;;;7.20;;
15408;SDS011;7803;48.130;13.788;2023-03-01T07:54:17;7.53;;;6.82;;
15408;SDS011;7803;48.130;13.788;2023-03-01T07:57:19;7.20;;;6.50;;
15408;SDS011;7803;48.130;13.788;2023-03-01T08:00:21;7.72;;;6.97;;
15408;SDS011;7803;48.130;13.788;2023-03-01T08:03:24;7.70;;;6.90;;
15408;SDS011;7803;48.130;13.788;2023-03-01T08:06:27;7.28;;;6.57;;
15408;SDS011;7803;48.130;13.788;2023-03-01T08:09:29;7.97;;;7.15;;
15408;SDS011;7803;48.130;13.788;2023-03-01T08:12:31;7.82;;;6.85;;
15408;SDS011;7803;48.130;13.788;2023-03-01T08:15:33;7.35;;;6.65;;
15408;SDS011;7803;48.130;13.788;2023-03-01T08:18:36;7.40;;;6.70;;
15408;SDS011;7803;48.130;13.788;2023-03-01T08:21:39;8.00;;;6.55;;
15408;SDS011;7803;48.130;13.788;2023-03-01T08:24:41;7.53;;;6.68;;
15408;SDS011;7803;48.130;13.788;2023-03-01T08:27:43;7.55;;;6.85;;
15408;SDS011;7803;48.130;13.788;2023-03-01T08:30:45;8.48;;;6.68;;
15408;SDS011;7803;48.130;13.788;2023-03-01T08:33:48;8.57;;;6.40;;
15408;SDS011;7803;48.130;13.788;2023-03-01T08:36:56;7.25;;;6.55;;
15408;SDS011;7803;48.130;13.788;2023-03-01T08:39:58;7.18;;;6.47;;
15408;SDS011;7803;48.130;13.788;2023-03-01T08:43:01;7.00;;;6.30;;
15408;SDS011;7803;48.130;13.788;2023-03-01T08:46:03;6.70;;;6.07;;
15408;SDS011;7803;48.130;13.788;2023-03-01T08:49:06;7.40;;;6.70;;
15408;SDS011;7803;48.130;13.788;2023-03-01T08:52:09;6.82;;;6.13;;
15408;SDS011;7803;48.130;13.788;2023-03-01T08:55:11;6.72;;;6.00;;
15408;SDS011;7803;48.130;13.788;2023-03-01T08:58:15;7.53;;;6.70;;
15408;SDS011;7803;48.130;13.788;2023-03-01T09:01:17;7.00;;;6.32;;
15408;SDS011;7803;48.130;13.788;2023-03-01T09:04:20;6.85;;;6.25;;
15408;SDS011;7803;48.130;13.788;2023-03-01T09:07:24;7.00;;;6.30;;
15408;SDS011;7803;48.130;13.788;2023-03-01T09:10:28;7.75;;;6.68;;
15408;SDS011;7803;48.130;13.788;2023-03-01T09:13:30;7.40;;;6.68;;
15408;SDS011;7803;48.130;13.788;2023-03-01T09:16:32;7.25;;;6.45;;
15408;SDS011;7803;48.130;13.788;2023-03-01T09:19:36;7.28;;;6.57;;
15408;SDS011;7803;48.130;13.788;2023-03-01T09:22:39;7.45;;;6.72;;
15408;SDS011;7803;48.130;13.788;2023-03-01T09:25:41;7.05;;;6.35;;
15408;SDS011;7803;48.130;13.788;2023-03-01T09:28:43;6.85;;;6.25;;
15408;SDS011;7803;48.130;13.788;2023-03-01T09:31:45;6.57;;;5.93;;
15408;SDS011;7803;48.130;13.788;2023-03-01T09:34:47;6.72;;;6.03;;
15408;SDS011;7803;48.130;13.788;2023-03-01T09:38:09;6.90;;;6.20;;
15408;SDS011;7803;48.130;13.788;2023-03-01T09:41:14;6.72;;;5.97;;
15408;SDS011;7803;48.130;13.788;2023-03-01T09:44:29;6.63;;;6.03;;
15408;SDS011;7803;48.130;13.788;2023-03-01T09:47:35;7.57;;;6.00;;
15408;SDS011;7803;48.130;13.788;2023-03-01T09:50:39;7.28;;;6.20;;
15408;SDS011;7803;48.130;13.788;2023-03-01T09:53:45;7.05;;;6.10;;
15408;SDS011;7803;48.130;13.788;2023-03-01T09:56:51;6.80;;;6.10;;
15408;SDS011;7803;48.130;13.788;2023-03-01T10:00:03;6.40;;;5.80;;
15408;SDS011;7803;48.130;13.788;2023-03-01T10:03:17;6.60;;;5.97;;
15408;SDS011;7803;48.130;13.788;2023-03-01T10:06:27;6.47;;;5.88;;
15408;SDS011;7803;48.130;13.788;2023-03-01T10:09:32;6.43;;;5.82;;
15408;SDS011;7803;48.130;13.788;2023-03-01T10:12:37;6.32;;;5.65;;
15408;SDS011;7803;48.130;13.788;2023-03-01T10:15:43;6.55;;;5.90;;
15408;SDS011;7803;48.130;13.788;2023-03-01T10:18:51;7.05;;;6.18;;
15408;SDS011;7803;48.130;13.788;2023-03-01T10:21:57;7.15;;;6.45;;
15408;SDS011;7803;48.130;13.788;2023-03-01T10:25:05;6.10;;;5.50;;
15408;SDS011;7803;48.130;13.788;2023-03-01T10:28:16;6.30;;;5.70;;
15408;SDS011;7803;48.130;13.788;2023-03-01T10:31:22;6.65;;;6.05;;
15408;SDS011;7803;48.130;13.788;2023-03-01T10:34:28;6.43;;;5.82;;
15408;SDS011;7803;48.130;13.788;2023-03-01T10:37:32;6.38;;;5.78;;
15408;SDS011;7803;48.130;13.788;2023-03-01T10:40:36;6.65;;;6.05;;
15408;SDS011;7803;48.130;13.788;2023-03-01T10:43:51;6.55;;;5.95;;
15408;SDS011;7803;48.130;13.788;2023-03-01T10:46:58;7.20;;;5.80;;
15408;SDS011;7803;48.130;13.788;2023-03-01T10:50:03;6.30;;;5.70;;
15408;SDS011;7803;48.130;13.788;2023-03-01T10:53:08;6.25;;;5.65;;
15408;SDS011;7803;48.130;13.788;2023-03-01T10:56:30;7.43;;;5.90;;
15408;SDS011;7803;48.130;13.788;2023-03-01T10:59:51;6.25;;;5.65;;
15408;SDS011;7803;48.130;13.788;2023-03-01T11:03:10;6.10;;;5.53;;
15408;SDS011;7803;48.130;13.788;2023-03-01T11:06:20;6.32;;;5.72;;
15408;SDS011;7803;48.130;13.788;2023-03-01T11:09:23;6.25;;;5.65;;
15408;SDS011;7803;48.130;13.788;2023-03-01T11:12:28;6.45;;;5.80;;
15408;SDS011;7803;48.130;13.788;2023-03-01T11:15:32;5.95;;;5.35;;
15408;SDS011;7803;48.130;13.788;2023-03-01T11:18:34;6.32;;;5.70;;
15408;SDS011;7803;48.130;13.788;2023-03-01T11:21:39;5.90;;;5.32;;
15408;SDS011;7803;48.130;13.788;2023-03-01T11:24:45;5.78;;;5.22;;
15408;SDS011;7803;48.130;13.788;2023-03-01T11:27:50;5.65;;;5.15;;
15408;SDS011;7803;48.130;13.788;2023-03-01T11:30:55;5.80;;;5.25;;
15408;SDS011;7803;48.130;13.788;2023-03-01T11:34:04;6.95;;;5.90;;
15408;SDS011;7803;48.130;13.788;2023-03-01T11:37:14;5.85;;;5.30;;
15408;SDS011;7803;48.130;13.788;2023-03-01T11:40:25;5.70;;;5.13;;
15408;SDS011;7803;48.130;13.788;2023-03-01T11:43:35;6.05;;;5.45;;
15408;SDS011;7803;48.130;13.788;2023-03-01T11:46:53;5.45;;;4.90;;
15408;SDS011;7803;48.130;13.788;2023-03-01T11:50:14;6.20;;;5.55;;
15408;SDS011;7803;48.130;13.788;2023-03-01T11:53:29;6.00;;;5.40;;
15408;SDS011;7803;48.130;13.788;2023-03-01T11:56:41;5.90;;;5.30;;
15408;SDS011;7803;48.130;13.788;2023-03-01T11:59:53;5.40;;;4.90;;
15408;SDS011;7803;48.130;13.788;2023-03-01T12:06:47;5.35;;;4.85;;
15408;SDS011;7803;48.130;13.788;2023-03-01T12:10:00;5.40;;;4.90;;
15408;SDS011;7803;48.130;13.788;2023-03-01T12:13:42;5.70;;;5.20;;
15408;SDS011;7803;48.130;13.788;2023-03-01T12:17:16;5.57;;;5.07;;
15408;SDS011;7803;48.130;13.788;2023-03-01T12:20:30;5.50;;;5.00;;
15408;SDS011;7803;48.130;13.788;2023-03-01T12:23:48;5.20;;;4.70;;
15408;SDS011;7803;48.130;13.788;2023-03-01T12:27:18;5.60;;;5.10;;
15408;SDS011;7803;48.130;13.788;2023-03-01T12:30:35;5.55;;;5.05;;
15408;SDS011;7803;48.130;13.788;2023-03-01T12:33:52;5.72;;;5.22;;
15408;SDS011;7803;48.130;13.788;2023-03-01T12:40:33;5.53;;;5.00;;
15408;SDS011;7803;48.130;13.788;2023-03-01T12:43:47;5.25;;;4.75;;
15408;SDS011;7803;48.130;13.788;2023-03-01T12:47:03;5.20;;;4.70;;
15408;SDS011;7803;48.130;13.788;2023-03-01T12:50:16;6.90;;;5.70;;
15408;SDS011;7803;48.130;13.788;2023-03-01T12:53:22;5.32;;;4.80;;
15408;SDS011;7803;48.130;13.788;2023-03-01T12:56:27;5.13;;;4.63;;
15408;SDS011;7803;48.130;13.788;2023-03-01T12:59:34;5.07;;;4.57;;
15408;SDS011;7803;48.130;13.788;2023-03-01T13:02:41;5.03;;;4.60;;
15408;SDS011;7803;48.130;13.788;2023-03-01T13:05:56;5.05;;;4.55;;
15408;SDS011;7803;48.130;13.788;2023-03-01T13:09:10;5.43;;;4.93;;
15408;SDS011;7803;48.130;13.788;2023-03-01T13:15:45;5.18;;;4.53;;
15408;SDS011;7803;48.130;13.788;2023-03-01T13:18:48;5.40;;;4.90;;
15408;SDS011;7803;48.130;13.788;2023-03-01T13:21:53;5.35;;;4.82;;
15408;SDS011;7803;48.130;13.788;2023-03-01T13:25:10;5.03;;;4.53;;
15408;SDS011;7803;48.130;13.788;2023-03-01T13:35:06;4.95;;;4.47;;
15408;SDS011;7803;48.130;13.788;2023-03-01T13:38:47;5.00;;;4.53;;
15408;SDS011;7803;48.130;13.788;2023-03-01T13:41:57;4.63;;;4.22;;
15408;SDS011;7803;48.130;13.788;2023-03-01T13:45:01;5.00;;;4.50;;
15408;SDS011;7803;48.130;13.788;2023-03-01T13:48:04;5.25;;;4.75;;
15408;SDS011;7803;48.130;13.788;2023-03-01T13:51:12;5.40;;;4.90;;
15408;SDS011;7803;48.130;13.788;2023-03-01T13:54:16;5.03;;;4.53;;
15408;SDS011;7803;48.130;13.788;2023-03-01T13:57:28;5.07;;;4.55;;
15408;SDS011;7803;48.130;13.788;2023-03-01T14:00:35;4.95;;;4.50;;
15408;SDS011;7803;48.130;13.788;2023-03-01T14:03:40;4.70;;;4.30;;
15408;SDS011;7803;48.130;13.788;2023-03-01T14:06:43;5.10;;;4.60;;
15408;SDS011;7803;48.130;13.788;2023-03-01T14:09:47;5.03;;;4.47;;
15408;SDS011;7803;48.130;13.788;2023-03-01T14:12:53;4.70;;;4.30;;
15408;SDS011;7803;48.130;13.788;2023-03-01T14:16:07;4.78;;;4.38;;
15408;SDS011;7803;48.130;13.788;2023-03-01T14:19:20;5.00;;;4.50;;
15408;SDS011;7803;48.130;13.788;2023-03-01T14:22:27;5.10;;;4.60;;
15408;SDS011;7803;48.130;13.788;2023-03-01T14:25:32;4.70;;;4.30;;
15408;SDS011;7803;48.130;13.788;2023-03-01T14:28:36;4.70;;;4.30;;
15408;SDS011;7803;48.130;13.788;2023-03-01T14:31:40;4.55;;;4.15;;
15408;SDS011;7803;48.130;13.788;2023-03-01T14:34:43;4.75;;;4.35;;
15408;SDS011;7803;48.130;13.788;2023-03-01T14:37:46;4.78;;;4.25;;
15408;SDS011;7803;48.130;13.788;2023-03-01T14:40:50;5.13;;;4.53;;
15408;SDS011;7803;48.130;13.788;2023-03-01T14:43:55;4.72;;;4.32;;
15408;SDS011;7803;48.130;13.788;2023-03-01T14:46:59;4.43;;;4.00;;
15408;SDS011;7803;48.130;13.788;2023-03-01T14:50:03;4.80;;;4.40;;
15408;SDS011;7803;48.130;13.788;2023-03-01T14:53:12;4.80;;;4.40;;
15408;SDS011;7803;48.130;13.788;2023-03-01T14:56:20;4.53;;;4.13;;
15408;SDS011;7803;48.130;13.788;2023-03-01T14:59:23;4.43;;;4.03;;
15408;SDS011;7803;48.130;13.788;2023-03-01T15:02:26;5.10;;;4.60;;
15408;SDS011;7803;48.130;13.788;2023-03-01T15:05:30;4.72;;;4.25;;
15408;SDS011;7803;48.130;13.788;2023-03-01T15:08:34;4.63;;;4.22;;
15408;SDS011;7803;48.130;13.788;2023-03-01T15:11:39;5.00;;;4.50;;
15408;SDS011;7803;48.130;13.788;2023-03-01T15:14:43;5.00;;;4.50;;
15408;SDS011;7803;48.130;13.788;2023-03-01T15:17:50;4.70;;;4.22;;
15408;SDS011;7803;48.130;13.788;2023-03-01T15:20:56;4.95;;;4.45;;
15408;SDS011;7803;48.130;13.788;2023-03-01T15:24:13;4.88;;;4.40;;
15408;SDS011;7803;48.130;13.788;2023-03-01T15:27:23;4.63;;;4.22;;
15408;SDS011;7803;48.130;13.788;2023-03-01T15:30:27;4.65;;;4.25;;
15408;SDS011;7803;48.130;13.788;2023-03-01T15:33:37;5.18;;;4.68;;
15408;SDS011;7803;48.130;13.788;2023-03-01T15:36:47;4.85;;;4.35;;
15408;SDS011;7803;48.130;13.788;2023-03-01T15:39:53;5.00;;;4.50;;
15408;SDS011;7803;48.130;13.788;2023-03-01T15:42:57;5.28;;;4.78;;
15408;SDS011;7803;48.130;13.788;2023-03-01T15:45:59;4.85;;;4.30;;
15408;SDS011;7803;48.130;13.788;2023-03-01T15:49:02;4.88;;;4.38;;
15408;SDS011;7803;48.130;13.788;2023-03-01T15:52:09;4.93;;;4.43;;
15408;SDS011;7803;48.130;13.788;2023-03-01T15:55:15;4.90;;;4.47;;
15408;SDS011;7803;48.130;13.788;2023-03-01T15:58:20;4.78;;;4.38;;
15408;SDS011;7803;48.130;13.788;2023-03-01T16:01:24;4.95;;;4.45;;
15408;SDS011;7803;48.130;13.788;2023-03-01T16:04:26;4.55;;;4.15;;
15408;SDS011;7803;48.130;13.788;2023-03-01T16:07:28;4.72;;;4.30;;
15408;SDS011;7803;48.130;13.788;2023-03-01T16:10:32;5.28;;;4.47;;
15408;SDS011;7803;48.130;13.788;2023-03-01T16:13:37;5.25;;;4.75;;
15408;SDS011;7803;48.130;13.788;2023-03-01T16:16:39;5.07;;;4.57;;
15408;SDS011;7803;48.130;13.788;2023-03-01T16:19:42;4.55;;;4.15;;
15408;SDS011;7803;48.130;13.788;2023-03-01T16:22:44;5.22;;;4.70;;
15408;SDS011;7803;48.130;13.788;2023-03-01T16:25:47;4.45;;;4.03;;
15408;SDS011;7803;48.130;13.788;2023-03-01T16:28:53;4.55;;;4.10;;
15408;SDS011;7803;48.130;13.788;2023-03-01T16:31:58;4.85;;;4.45;;
15408;SDS011;7803;48.130;13.788;2023-03-01T16:35:02;4.50;;;4.10;;
15408;SDS011;7803;48.130;13.788;2023-03-01T16:38:04;4.65;;;4.25;;
15408;SDS011;7803;48.130;13.788;2023-03-01T16:41:07;4.75;;;4.28;;
15408;SDS011;7803;48.130;13.788;2023-03-01T16:44:15;4.40;;;4.00;;
15408;SDS011;7803;48.130;13.788;2023-03-01T16:47:17;4.97;;;4.53;;
15408;SDS011;7803;48.130;13.788;2023-03-01T16:50:19;4.90;;;4.38;;
15408;SDS011;7803;48.130;13.788;2023-03-01T16:53:22;5.25;;;4.75;;
15408;SDS011;7803;48.130;13.788;2023-03-01T16:56:24;5.30;;;4.80;;
15408;SDS011;7803;48.130;13.788;2023-03-01T16:59:28;4.95;;;4.53;;
15408;SDS011;7803;48.130;13.788;2023-03-01T17:02:30;5.13;;;4.63;;
15408;SDS011;7803;48.130;13.788;2023-03-01T17:05:32;4.65;;;4.20;;
15408;SDS011;7803;48.130;13.788;2023-03-01T17:08:35;4.55;;;4.15;;
15408;SDS011;7803;48.130;13.788;2023-03-01T17:11:38;5.15;;;4.65;;
15408;SDS011;7803;48.130;13.788;2023-03-01T17:14:42;5.03;;;4.50;;
15408;SDS011;7803;48.130;13.788;2023-03-01T17:17:44;4.63;;;4.22;;
15408;SDS011;7803;48.130;13.788;2023-03-01T17:20:50;4.93;;;4.30;;
15408;SDS011;7803;48.130;13.788;2023-03-01T17:23:54;4.82;;;4.32;;
15408;SDS011;7803;48.130;13.788;2023-03-01T17:26:57;4.70;;;4.30;;
15408;SDS011;7803;48.130;13.788;2023-03-01T17:30:01;4.95;;;4.45;;
15408;SDS011;7803;48.130;13.788;2023-03-01T17:33:04;4.53;;;4.13;;
15408;SDS011;7803;48.130;13.788;2023-03-01T17:36:06;4.80;;;4.40;;
15408;SDS011;7803;48.130;13.788;2023-03-01T17:39:09;5.07;;;4.50;;
15408;SDS011;7803;48.130;13.788;2023-03-01T17:42:12;4.70;;;4.20;;
15408;SDS011;7803;48.130;13.788;2023-03-01T17:45:15;5.82;;;4.78;;
15408;SDS011;7803;48.130;13.788;2023-03-01T17:48:20;5.22;;;4.68;;
15408;SDS011;7803;48.130;13.788;2023-03-01T17:51:23;5.03;;;4.53;;
15408;SDS011;7803;48.130;13.788;2023-03-01T17:54:25;4.85;;;4.35;;
15408;SDS011;7803;48.130;13.788;2023-03-01T17:57:28;4.63;;;4.22;;
15408;SDS011;7803;48.130;13.788;2023-03-01T18:00:33;4.68;;;4.20;;
15408;SDS011;7803;48.130;13.788;2023-03-01T18:03:36;4.68;;;4.28;;
15408;SDS011;7803;48.130;13.788;2023-03-01T18:06:38;4.63;;;4.22;;
15408;SDS011;7803;48.130;13.788;2023-03-01T18:09:41;4.72;;;4.32;;
15408;SDS011;7803;48.130;13.788;2023-03-01T18:12:44;4.55;;;4.15;;
15408;SDS011;7803;48.130;13.788;2023-03-01T18:15:48;4.53;;;4.10;;
15408;SDS011;7803;48.130;13.788;2023-03-01T18:18:52;4.40;;;4.00;;
15408;SDS011;7803;48.130;13.788;2023-03-01T18:21:55;5.00;;;4.50;;
15408;SDS011;7803;48.130;13.788;2023-03-01T18:24:57;4.57;;;4.18;;
15408;SDS011;7803;48.130;13.788;2023-03-01T18:28:00;4.95;;;4.45;;
15408;SDS011;7803;48.130;13.788;2023-03-01T18:31:06;4.72;;;4.30;;
15408;SDS011;7803;48.130;13.788;2023-03-01T18:34:11;4.72;;;4.28;;
15408;SDS011;7803;48.130;13.788;2023-03-01T18:37:14;4.93;;;4.50;;
15408;SDS011;7803;48.130;13.788;2023-03-01T18:40:20;4.78;;;4.28;;
15408;SDS011;7803;48.130;13.788;2023-03-01T18:43:22;4.60;;;4.20;;
15408;SDS011;7803;48.130;13.788;2023-03-01T18:46:32;4.30;;;3.90;;
15408;SDS011;7803;48.130;13.788;2023-03-01T18:49:38;4.50;;;4.10;;
15408;SDS011;7803;48.130;13.788;2023-03-01T18:52:40;4.47;;;4.07;;
15408;SDS011;7803;48.130;13.788;2023-03-01T18:55:43;4.60;;;4.20;;